Time;durP1;ratioP1;P1;durP2;ratioP2;P2;SDS_P1;SDS_P2;PMS_P1;PMS_P2;Temp;Humidity;BMP_temperature;BMP_pressure;BME280_temperature;BME280_humidity;BME280_pressure;Samples;Min_cycle;Max_cycle;Signal;HPM_P1;HPM_P2
2023/12/25 00:02:11;;;;;;;4.18;0.88;;;;;;;11.73;79.65;100544.50;6138495;23;20036;-71
2023/12/25 00:04:39;;;;;;;1.30;0.52;;;;;;;11.72;80.00;100542.84;6137893;23;20372;-71
2023/12/25 00:07:08;;;;;;;3.05;1.10;;;;;;;11.72;79.85;100545.53;6137896;23;20017;-71
2023/12/25 00:09:36;;;;;;;1.17;0.65;;;;;;;11.73;79.84;100540.97;6138534;23;20026;-71
2023/12/25 00:12:05;;;;;;;1.65;1.13;;;;;;;11.80;79.82;100533.63;6138580;23;20025;-71
2023/12/25 00:14:34;;;;;;;3.60;0.90;;;;;;;11.76;79.92;100531.59;6138041;23;20054;-71
2023/12/25 00:17:02;;;;;;;1.10;0.82;;;;;;;11.75;79.85;100538.88;6138128;23;20094;-71
2023/12/25 00:19:30;;;;;;;1.00;0.60;;;;;;;11.74;80.11;100534.53;6137914;23;20038;-71
2023/12/25 00:21:58;;;;;;;2.58;0.77;;;;;;;11.73;79.93;100530.22;6137197;23;20512;-71
2023/12/25 00:24:26;;;;;;;1.08;0.50;;;;;;;11.62;79.99;100521.09;6136191;23;20121;-72
2023/12/25 00:26:54;;;;;;;1.73;0.70;;;;;;;11.74;79.87;100521.06;6136481;23;20026;-72
2023/12/25 00:29:22;;;;;;;1.00;0.60;;;;;;;11.72;79.44;100524.00;6136427;23;20033;-72
2023/12/25 00:31:51;;;;;;;0.65;0.52;;;;;;;11.76;79.53;100520.84;6138018;23;20029;-72
2023/12/25 00:34:19;;;;;;;1.42;0.77;;;;;;;11.75;79.92;100530.78;6138724;23;20057;-72
2023/12/25 00:36:46;;;;;;;2.08;0.80;;;;;;;11.73;80.01;100522.94;6138139;23;20082;-71
2023/12/25 00:39:14;;;;;;;1.85;0.50;;;;;;;11.74;80.11;100526.47;6137845;23;20333;-71
2023/12/25 00:41:42;;;;;;;1.17;0.60;;;;;;;11.72;79.85;100524.00;6138630;23;20026;-72
2023/12/25 00:44:10;;;;;;;7.85;1.02;;;;;;;11.71;80.10;100516.16;6137886;23;20029;-72
2023/12/25 00:46:38;;;;;;;1.33;0.60;;;;;;;11.70;80.13;100530.69;6137058;23;20026;-72
2023/12/25 00:49:07;;;;;;;2.90;0.85;;;;;;;11.72;80.08;100542.03;6138806;23;20058;-72
2023/12/25 00:51:35;;;;;;;0.93;0.82;;;;;;;11.72;79.92;100540.16;6137131;23;20022;-71
2023/12/25 00:54:03;;;;;;;2.35;1.00;;;;;;;11.72;80.03;100545.53;6136620;23;20097;-71
2023/12/25 00:56:31;;;;;;;1.75;0.88;;;;;;;11.71;79.88;100554.66;6135565;23;20040;-71
2023/12/25 00:58:59;;;;;;;2.30;0.80;;;;;;;11.71;80.22;100556.53;6136717;23;20042;-71
2023/12/25 01:01:27;;;;;;;1.65;0.70;;;;;;;11.71;80.20;100543.91;6137891;23;20026;-71
2023/12/25 01:03:55;;;;;;;3.80;0.88;;;;;;;11.72;80.08;100550.09;6138535;23;20081;-71
2023/12/25 01:06:25;;;;;;;1.95;0.82;;;;;;;11.73;79.99;100557.94;6136418;23;20044;-71
2023/12/25 01:08:52;;;;;;;1.63;0.80;;;;;;;11.70;80.09;100550.34;6138252;23;20022;-71
2023/12/25 01:11:20;;;;;;;1.00;0.82;;;;;;;11.73;79.69;100560.63;6137633;23;20026;-71
2023/12/25 01:13:48;;;;;;;2.15;0.70;;;;;;;11.73;79.86;100555.25;6137856;23;20037;-72
2023/12/25 01:16:16;;;;;;;3.03;1.00;;;;;;;11.74;79.92;100556.91;6137564;23;20364;-72
2023/12/25 01:18:44;;;;;;;2.65;0.70;;;;;;;11.76;79.65;100566.59;6138022;23;20025;-72
2023/12/25 01:21:12;;;;;;;1.73;0.70;;;;;;;11.76;79.98;100566.59;6137062;23;20030;-71
2023/12/25 01:23:41;;;;;;;1.15;0.80;;;;;;;11.76;79.69;100580.06;6135878;23;20033;-71
2023/12/25 01:26:09;;;;;;;3.65;0.90;;;;;;;11.74;79.81;100566.84;6135256;23;20026;-70
2023/12/25 01:28:37;;;;;;;1.95;0.90;;;;;;;11.74;79.76;100575.72;6136580;23;20305;-70
2023/12/25 01:31:06;;;;;;;1.40;0.70;;;;;;;11.74;80.17;100564.97;6137649;23;20088;-71
2023/12/25 01:33:34;;;;;;;2.58;0.98;;;;;;;11.72;79.74;100567.06;6137734;23;20026;-71
2023/12/25 01:36:02;;;;;;;1.27;0.70;;;;;;;11.72;79.92;100567.06;6137000;23;20025;-70
2023/12/25 01:38:29;;;;;;;3.03;0.65;;;;;;;11.72;80.16;100572.47;6137950;23;20468;-71
2023/12/25 01:40:59;;;;;;;2.88;0.63;;;;;;;11.73;80.32;100581.34;6138181;23;20033;-71
2023/12/25 01:43:37;;;;;;;1.85;0.80;;;;;;;11.73;80.29;100570.59;6139569;23;20026;-71
2023/12/25 01:46:05;;;;;;;1.92;0.80;;;;;;;11.71;80.31;100576.22;6138944;23;20026;-70
2023/12/25 01:48:33;;;;;;;1.38;0.75;;;;;;;11.73;79.88;100573.28;6139302;23;20022;-71
2023/12/25 01:51:02;;;;;;;2.47;0.88;;;;;;;11.73;80.03;100578.66;6139000;23;20237;-72
2023/12/25 01:53:30;;;;;;;2.10;0.95;;;;;;;11.60;79.94;100541.22;6138692;23;20026;-71
2023/12/25 01:56:00;;;;;;;1.23;0.70;;;;;;;11.73;79.86;100567.91;6137411;23;20053;-72
2023/12/25 01:58:28;;;;;;;1.13;0.68;;;;;;;11.70;79.76;100561.09;6138072;23;20078;-71
2023/12/25 02:00:55;;;;;;;2.53;0.85;;;;;;;11.72;79.80;100560.88;6139975;23;20021;-71
2023/12/25 02:03:23;;;;;;;3.30;0.95;;;;;;;11.71;79.92;100573.53;6139409;23;20052;-71
2023/12/25 02:05:51;;;;;;;1.13;0.90;;;;;;;11.72;79.69;100579.72;6139205;23;20149;-71
2023/12/25 02:08:20;;;;;;;0.73;0.60;;;;;;;11.72;80.09;100574.34;6139730;23;20021;-71
2023/12/25 02:10:48;;;;;;;2.40;1.10;;;;;;;11.71;79.96;100570.00;6139024;23;20021;-71
2023/12/25 02:13:17;;;;;;;1.52;0.88;;;;;;;11.72;79.93;100577.84;6139586;23;20026;-71
2023/12/25 02:15:45;;;;;;;1.13;1.00;;;;;;;11.72;79.94;100571.66;6139580;23;20137;-71
2023/12/25 02:18:13;;;;;;;1.48;0.80;;;;;;;11.72;79.51;100571.66;6139632;23;20018;-71
2023/12/25 02:20:41;;;;;;;5.85;1.20;;;;;;;11.72;79.83;100575.16;6139468;23;20037;-71
2023/12/25 02:23:15;;;;;;;1.50;0.80;;;;;;;11.71;79.84;100580.78;6138728;23;20026;-71
2023/12/25 02:25:56;;;;;;;2.53;0.90;;;;;;;11.70;80.01;100601.50;6137646;23;20029;-71
2023/12/25 02:28:24;;;;;;;1.35;0.60;;;;;;;11.71;79.72;100584.28;6137387;23;20081;-71
2023/12/25 02:30:52;;;;;;;1.85;0.93;;;;;;;11.70;79.83;100582.66;6140057;23;20040;-71
2023/12/25 02:33:20;;;;;;;1.15;0.80;;;;;;;11.71;79.48;100586.16;6139491;23;20033;-71
2023/12/25 02:35:48;;;;;;;2.53;0.90;;;;;;;11.72;79.74;100603.94;6139588;23;20089;-71
2023/12/25 02:38:16;;;;;;;1.55;1.00;;;;;;;11.71;79.88;100603.13;6138933;23;20029;-71
2023/12/25 02:40:44;;;;;;;3.67;0.90;;;;;;;11.70;79.89;100593.41;6139415;23;20064;-71
2023/12/25 02:43:13;;;;;;;3.28;1.40;;;;;;;11.71;79.60;100591.53;6139336;23;20053;-71
2023/12/25 02:45:41;;;;;;;1.98;1.00;;;;;;;11.70;79.98;100595.28;6138778;23;20468;-71
2023/12/25 02:48:09;;;;;;;1.08;0.90;;;;;;;11.71;79.82;100605.00;6139502;23;20026;-71
2023/12/25 02:50:37;;;;;;;1.77;0.85;;;;;;;11.57;80.06;100585.59;6139315;23;20033;-71
2023/12/25 02:53:04;;;;;;;1.13;1.00;;;;;;;11.72;79.51;100604.75;6137937;23;20116;-71
2023/12/25 02:55:32;;;;;;;2.15;0.82;;;;;;;11.72;79.64;100620.91;6138113;23;20491;-71
2023/12/25 02:58:00;;;;;;;1.70;1.35;;;;;;;11.73;79.80;100622.56;6138937;23;20026;-71
2023/12/25 03:00:29;;;;;;;0.93;0.73;;;;;;;11.72;79.86;100617.41;6138044;23;20046;-70
2023/12/25 03:02:57;;;;;;;1.05;0.80;;;;;;;11.72;79.95;100626.31;6138766;23;20032;-70
2023/12/25 03:05:25;;;;;;;1.67;1.00;;;;;;;11.72;79.97;100629.00;6139063;23;20034;-70
2023/12/25 03:07:53;;;;;;;2.45;1.13;;;;;;;11.72;79.72;100636.25;6137667;23;20122;-70
2023/12/25 03:10:21;;;;;;;1.13;0.80;;;;;;;11.73;79.49;100627.94;6139078;23;20309;-71
2023/12/25 03:12:49;;;;;;;2.08;0.90;;;;;;;11.73;79.79;100603.72;6139131;23;20070;-72
2023/12/25 03:15:16;;;;;;;2.78;1.08;;;;;;;11.61;79.94;100591.31;6137992;23;20026;-71
2023/12/25 03:17:45;;;;;;;1.17;0.90;;;;;;;11.74;79.85;100609.91;6138510;23;20069;-71
2023/12/25 03:20:13;;;;;;;1.08;0.85;;;;;;;11.74;79.73;100618.00;6139037;23;20021;-70
2023/12/25 03:22:41;;;;;;;1.33;0.80;;;;;;;11.74;79.47;100620.69;6137402;23;20361;-71
2023/12/25 03:25:09;;;;;;;3.60;0.90;;;;;;;11.72;79.94;100620.91;6137014;23;20033;-71
2023/12/25 03:27:37;;;;;;;5.97;0.88;;;;;;;11.73;79.45;100616.34;6137884;23;20032;-70
2023/12/25 03:30:06;;;;;;;2.75;1.33;;;;;;;11.73;79.88;100617.19;6137180;23;20041;-71
2023/12/25 03:32:34;;;;;;;1.58;0.98;;;;;;;11.73;79.88;100613.66;6137639;23;20033;-70
2023/12/25 03:35:03;;;;;;;1.30;0.80;;;;;;;11.71;80.01;100615.78;6139002;23;20026;-70
2023/12/25 03:37:31;;;;;;;1.00;0.68;;;;;;;11.73;79.84;100621.75;6138243;23;20065;-70
2023/12/25 03:39:59;;;;;;;1.35;0.80;;;;;;;11.72;79.65;100626.31;6138940;23;20025;-71
2023/12/25 03:42:28;;;;;;;1.65;0.90;;;;;;;11.71;79.99;100632.75;6138656;23;20026;-71
2023/12/25 03:44:55;;;;;;;5.65;1.88;;;;;;;11.72;79.87;100623.63;6137614;23;20026;-71
2023/12/25 03:47:23;;;;;;;0.98;0.73;;;;;;;11.69;79.85;100631.34;6138829;23;20066;-71
2023/12/25 03:49:51;;;;;;;0.75;0.75;;;;;;;11.72;79.55;100633.56;6138691;23;20022;-71
2023/12/25 03:52:21;;;;;;;1.33;0.70;;;;;;;11.72;79.86;100647.84;6137319;23;20030;-71
2023/12/25 03:54:49;;;;;;;1.90;0.85;;;;;;;11.71;79.78;100648.91;6136960;23;20510;-71
2023/12/25 03:57:16;;;;;;;1.10;1.00;;;;;;;11.70;79.70;100655.34;6136939;23;20088;-70
2023/12/25 03:59:44;;;;;;;1.58;0.98;;;;;;;11.69;79.68;100650.19;6137098;23;20061;-70
2023/12/25 04:02:12;;;;;;;1.58;0.73;;;;;;;11.68;79.77;100643.16;6138698;23;20028;-70
2023/12/25 04:04:40;;;;;;;1.30;0.68;;;;;;;11.71;79.90;100651.59;6137999;23;20088;-70
2023/12/25 04:07:08;;;;;;;2.30;0.70;;;;;;;11.70;79.82;100652.63;6138360;23;20089;-69
2023/12/25 04:09:37;;;;;;;1.65;0.90;;;;;;;11.71;80.16;100656.97;6138205;23;20034;-71
2023/12/25 04:12:05;;;;;;;2.97;0.90;;;;;;;11.70;80.02;100660.72;6138966;23;20026;-71
2023/12/25 04:14:37;;;;;;;1.42;0.70;;;;;;;11.71;79.84;100650.78;6137784;23;20496;-71
2023/12/25 04:17:05;;;;;;;0.73;0.60;;;;;;;11.70;79.83;100638.38;6138565;23;20036;-71
2023/12/25 04:19:33;;;;;;;5.57;1.10;;;;;;;11.69;79.93;100632.16;6139011;23;20081;-70
2023/12/25 04:22:01;;;;;;;1.42;0.80;;;;;;;11.70;79.62;100631.09;6136586;23;20049;-71
2023/12/25 04:24:29;;;;;;;1.98;0.68;;;;;;;11.69;79.78;100616.00;6136850;23;20030;-71
2023/12/25 04:26:58;;;;;;;1.85;0.90;;;;;;;11.70;79.64;100624.91;6137095;23;20061;-71
2023/12/25 04:29:26;;;;;;;1.20;0.82;;;;;;;11.71;79.76;100615.78;6136139;23;20073;-71
2023/12/25 04:31:53;;;;;;;2.58;0.77;;;;;;;11.70;79.82;100616.81;6138711;23;20183;-71
2023/12/25 04:34:21;;;;;;;1.73;1.08;;;;;;;11.67;80.00;100623.50;6138119;23;20049;-71
2023/12/25 04:36:49;;;;;;;1.45;0.77;;;;;;;11.69;79.81;100628.66;6139085;23;20081;-71
2023/12/25 04:39:17;;;;;;;2.00;0.68;;;;;;;11.68;80.00;100627.00;6137771;23;20403;-71
2023/12/25 04:41:45;;;;;;;1.33;0.68;;;;;;;11.66;79.63;100610.28;6138945;23;20352;-71
2023/12/25 04:44:14;;;;;;;1.90;0.70;;;;;;;11.68;79.77;100613.53;6137374;23;20032;-71
2023/12/25 04:46:42;;;;;;;1.15;0.93;;;;;;;11.69;79.88;100617.88;6137925;23;20022;-71
2023/12/25 04:49:09;;;;;;;1.17;0.50;;;;;;;11.70;79.99;100614.13;6138356;23;20026;-70
2023/12/25 04:51:39;;;;;;;1.55;0.63;;;;;;;11.70;79.90;100617.66;6137652;23;20483;-71
2023/12/25 04:54:07;;;;;;;1.08;0.68;;;;;;;11.70;79.99;100614.13;6136434;23;20408;-71
2023/12/25 04:56:35;;;;;;;2.03;1.15;;;;;;;11.68;79.50;100610.84;6136465;23;20060;-71
2023/12/25 04:59:03;;;;;;;0.93;0.52;;;;;;;11.71;79.66;100600.44;6136469;23;20101;-71
2023/12/25 05:01:32;;;;;;;2.45;1.33;;;;;;;11.69;79.54;100580.19;6138592;23;20172;-71
2023/12/25 05:04:00;;;;;;;0.70;0.60;;;;;;;11.69;79.61;100583.69;6138338;23;20025;-71
2023/12/25 05:06:28;;;;;;;1.80;0.75;;;;;;;11.72;79.75;100587.78;6137878;23;20034;-70
2023/12/25 05:08:56;;;;;;;1.27;0.50;;;;;;;11.71;79.86;100570.00;6138787;23;20028;-71
2023/12/25 05:11:24;;;;;;;1.48;0.50;;;;;;;11.70;80.18;100563.81;6137235;23;20490;-71
2023/12/25 05:13:52;;;;;;;0.95;0.63;;;;;;;11.70;79.92;100569.19;6138137;23;20032;-71
2023/12/25 05:16:20;;;;;;;0.73;0.30;;;;;;;11.70;80.12;100581.81;6137883;23;20026;-71
2023/12/25 05:18:49;;;;;;;0.30;0.30;;;;;;;11.68;80.44;100592.84;6138189;23;20029;-70
2023/12/25 05:21:17;;;;;;;0.75;0.40;;;;;;;11.64;80.39;100583.59;6136958;23;20101;-71
2023/12/25 05:23:45;;;;;;;0.57;0.30;;;;;;;11.67;80.50;100599.28;6136676;23;20069;-71
2023/12/25 05:26:13;;;;;;;0.20;0.20;;;;;;;11.63;80.61;100595.41;6135649;23;20029;-71
2023/12/25 05:28:41;;;;;;;0.22;0.20;;;;;;;11.65;80.73;100597.88;6134613;23;20050;-71
2023/12/25 05:31:09;;;;;;;1.48;0.98;;;;;;;11.55;80.73;100586.88;6134734;23;20341;-71
2023/12/25 05:33:37;;;;;;;0.40;0.40;;;;;;;11.68;80.27;100579.38;6136177;23;20026;-71
2023/12/25 05:36:07;;;;;;;0.30;0.30;;;;;;;11.68;80.25;100579.38;6135324;23;20437;-71
2023/12/25 05:38:35;;;;;;;0.52;0.32;;;;;;;11.67;80.49;100568.84;6135990;23;20029;-72
2023/12/25 05:41:03;;;;;;;0.40;0.40;;;;;;;11.68;80.40;100579.38;6135924;23;20033;-71
2023/12/25 05:43:31;;;;;;;0.30;0.30;;;;;;;11.69;80.53;100582.88;6135602;23;20025;-71
2023/12/25 05:45:58;;;;;;;4.75;0.40;;;;;;;11.68;80.52;100590.13;6134788;23;20033;-71
2023/12/25 05:48:26;;;;;;;0.93;0.50;;;;;;;11.66;80.24;100603.00;6136276;23;20073;-71
2023/12/25 05:50:54;;;;;;;0.80;0.35;;;;;;;11.67;80.52;100599.28;6135339;23;20496;-71
2023/12/25 05:53:24;;;;;;;0.57;0.30;;;;;;;11.68;80.40;100592.84;6134619;23;20022;-71
2023/12/25 05:55:52;;;;;;;1.80;0.50;;;;;;;11.67;80.17;100593.88;6133418;23;20080;-70
2023/12/25 05:58:20;;;;;;;0.20;0.20;;;;;;;11.68;80.52;100595.53;6133403;23;20030;-71
2023/12/25 06:00:48;;;;;;;0.40;0.40;;;;;;;11.66;80.09;100577.97;6135264;23;20393;-71
2023/12/25 06:03:16;;;;;;;1.45;0.30;;;;;;;11.68;80.14;100606.28;6136087;23;20078;-70
2023/12/25 06:05:44;;;;;;;0.32;0.32;;;;;;;11.68;80.26;100600.09;6135118;23;20036;-70
2023/12/25 06:08:12;;;;;;;0.30;0.30;;;;;;;11.66;80.44;100584.16;6136109;23;20216;-70
2023/12/25 06:10:41;;;;;;;0.50;0.50;;;;;;;11.68;80.00;100592.84;6135702;23;20404;-70
2023/12/25 06:13:09;;;;;;;2.28;0.40;;;;;;;11.68;80.39;100576.69;6135866;23;20026;-69
2023/12/25 06:15:36;;;;;;;0.40;0.40;;;;;;;11.68;80.16;100598.22;6135613;23;20030;-70
2023/12/25 06:18:05;;;;;;;0.40;0.40;;;;;;;11.69;80.61;100590.97;6135354;23;20049;-70
2023/12/25 06:20:33;;;;;;;0.35;0.35;;;;;;;11.70;80.48;100576.44;6134588;23;20085;-69
2023/12/25 06:23:01;;;;;;;0.45;0.30;;;;;;;11.67;80.45;100577.72;6134522;23;20503;-69
2023/12/25 06:25:29;;;;;;;0.30;0.30;;;;;;;11.69;80.61;100582.88;6133894;23;20026;-70
2023/12/25 06:27:58;;;;;;;0.25;0.22;;;;;;;11.65;80.71;100590.59;6134346;23;20028;-69
2023/12/25 06:30:28;;;;;;;0.40;0.40;;;;;;;11.62;80.27;100569.53;6136568;23;20085;-70
2023/12/25 06:32:56;;;;;;;1.02;0.50;;;;;;;11.56;80.70;100561.59;6137266;23;20026;-70
2023/12/25 06:35:24;;;;;;;0.30;0.30;;;;;;;11.66;80.63;100569.91;6137903;23;20146;-70
2023/12/25 06:37:52;;;;;;;0.50;0.40;;;;;;;11.66;80.83;100583.34;6136961;23;20026;-70
2023/12/25 06:40:21;;;;;;;0.20;0.20;;;;;;;11.65;80.84;100579.03;6137173;23;20037;-72
2023/12/25 06:42:48;;;;;;;0.40;0.35;;;;;;;11.64;80.61;100596.22;6137489;23;20162;-71
2023/12/25 06:45:18;;;;;;;0.68;0.50;;;;;;;11.65;80.37;100587.91;6137042;23;20030;-69
2023/12/25 06:47:46;;;;;;;0.95;0.40;;;;;;;11.66;80.59;100597.63;6136421;23;20057;-68
2023/12/25 06:50:14;;;;;;;0.20;0.20;;;;;;;11.67;80.62;100577.72;6137455;23;20026;-70
2023/12/25 06:52:43;;;;;;;0.20;0.20;;;;;;;11.67;80.78;100601.97;6135537;23;20512;-72
2023/12/25 06:55:11;;;;;;;0.43;0.30;;;;;;;11.68;80.77;100613.53;6135762;23;20054;-71
2023/12/25 06:57:39;;;;;;;1.90;0.30;;;;;;;11.69;81.00;100609.81;6135196;23;20337;-71
2023/12/25 07:00:08;;;;;;;0.35;0.35;;;;;;;11.69;80.58;100601.72;6135845;23;20036;-74
2023/12/25 07:02:38;;;;;;;3.95;0.50;;;;;;;11.65;80.80;100592.47;6136711;23;20022;-73
2023/12/25 07:05:07;;;;;;;0.30;0.30;;;;;;;11.68;80.76;100597.41;6137599;23;20040;-72
2023/12/25 07:07:34;;;;;;;0.35;0.35;;;;;;;11.70;80.58;100589.91;6136964;23;20062;-71
2023/12/25 07:10:03;;;;;;;0.30;0.30;;;;;;;11.70;80.44;100581.81;6137671;23;20033;-73
2023/12/25 07:12:31;;;;;;;0.50;0.50;;;;;;;11.69;80.81;100591.78;6136925;23;20061;-72
2023/12/25 07:14:59;;;;;;;0.52;0.50;;;;;;;11.70;80.68;100595.28;6136846;23;20033;-72
2023/12/25 07:17:27;;;;;;;0.73;0.40;;;;;;;11.68;80.62;100598.22;6136838;23;20032;-74
2023/12/25 07:19:56;;;;;;;0.68;0.43;;;;;;;11.69;80.85;100609.81;6137293;23;20064;-73
2023/12/25 07:22:24;;;;;;;1.55;1.30;;;;;;;11.68;80.76;100611.69;6135489;23;20026;-73
2023/12/25 07:24:51;;;;;;;0.52;0.52;;;;;;;11.70;80.93;100614.13;6134952;23;20097;-71
2023/12/25 07:27:19;;;;;;;1.58;0.80;;;;;;;11.69;80.62;100623.25;6134780;23;20026;-70
2023/12/25 07:29:47;;;;;;;0.70;0.70;;;;;;;11.69;81.06;100626.78;6135256;23;20033;-71
2023/12/25 07:32:15;;;;;;;0.52;0.45;;;;;;;11.70;80.93;100620.34;6137469;23;20097;-71
2023/12/25 07:34:42;;;;;;;0.77;0.77;;;;;;;11.73;80.47;100625.25;6137105;23;20053;-75
2023/12/25 07:37:12;;;;;;;1.48;0.80;;;;;;;11.72;80.48;100634.38;6136023;23;20026;-67
2023/12/25 07:39:42;;;;;;;0.52;0.52;;;;;;;11.72;80.71;100637.06;6137010;23;20033;-75
2023/12/25 07:42:10;;;;;;;1.40;0.70;;;;;;;11.72;80.91;100639.75;6137122;23;20083;-74
2023/12/25 07:44:39;;;;;;;0.70;0.70;;;;;;;11.72;80.58;100649.72;6135424;23;20053;-64
2023/12/25 07:47:07;;;;;;;0.65;0.60;;;;;;;11.70;80.80;100643.75;6136657;23;20078;-70
2023/12/25 07:49:34;;;;;;;0.63;0.63;;;;;;;11.68;80.82;100640.47;6137197;23;20030;-70
2023/12/25 07:52:02;;;;;;;0.93;0.57;;;;;;;11.72;80.90;100641.63;6135894;23;20024;-73
2023/12/25 07:54:32;;;;;;;0.40;0.40;;;;;;;11.71;80.90;100651.59;6135476;23;20411;-70
2023/12/25 07:56:59;;;;;;;0.80;0.50;;;;;;;11.71;81.02;100650.78;6133808;23;20034;-64
2023/12/25 07:59:27;;;;;;;0.40;0.40;;;;;;;11.70;81.14;100652.63;6135414;23;20080;-72
2023/12/25 08:01:55;;;;;;;1.38;0.55;;;;;;;11.70;81.20;100655.34;6136754;23;20026;-73
2023/12/25 08:04:23;;;;;;;0.40;0.40;;;;;;;11.69;81.30;100661.78;6136978;23;20026;-71
2023/12/25 08:06:54;;;;;;;1.45;0.50;;;;;;;11.71;80.91;100658.84;6136527;23;20026;-72
2023/12/25 08:09:22;;;;;;;2.90;0.63;;;;;;;11.73;80.54;100665.63;6137318;23;20025;-72
2023/12/25 08:11:51;;;;;;;0.70;0.70;;;;;;;11.74;80.63;100667.28;6136651;23;20076;-74
2023/12/25 08:14:19;;;;;;;0.60;0.60;;;;;;;11.74;81.10;100672.66;6130569;23;20050;-73
2023/12/25 08:16:47;;;;;;;0.50;0.50;;;;;;;11.75;80.66;100676.16;6134552;23;20100;-72
2023/12/25 08:19:15;;;;;;;0.75;0.60;;;;;;;11.76;80.67;100685.06;6136225;23;20049;-73
2023/12/25 08:21:43;;;;;;;0.75;0.63;;;;;;;11.66;80.95;100662.25;6135791;23;20073;-71
2023/12/25 08:24:11;;;;;;;0.40;0.40;;;;;;;11.74;80.89;100682.59;6134629;23;20405;-76
2023/12/25 08:26:38;;;;;;;0.40;0.40;;;;;;;11.77;80.81;100681.31;6134923;23;20248;-75
2023/12/25 08:29:08;;;;;;;0.82;0.63;;;;;;;11.78;81.06;100683.81;6134242;23;20108;-74
2023/12/25 08:31:39;;;;;;;0.50;0.50;;;;;;;11.78;80.76;100691.06;6136180;23;20159;-70
2023/12/25 08:34:07;;;;;;;2.65;0.90;;;;;;;11.78;81.04;100693.75;6135845;23;20022;-72
2023/12/25 08:36:34;;;;;;;1.17;0.60;;;;;;;11.77;80.99;100695.63;6135530;23;20053;-75
2023/12/25 08:39:02;;;;;;;0.73;0.57;;;;;;;11.77;81.12;100698.31;6135624;23;20096;-77
2023/12/25 08:41:31;;;;;;;0.70;0.70;;;;;;;11.74;81.42;100688.81;6135921;23;20097;-72
2023/12/25 08:43:59;;;;;;;1.33;0.77;;;;;;;11.76;81.39;100701.22;6135578;23;20026;-73
2023/12/25 08:46:28;;;;;;;0.90;0.90;;;;;;;11.78;81.07;100688.38;6135790;23;20025;-74
2023/12/25 08:48:56;;;;;;;1.92;1.00;;;;;;;11.82;81.43;100692.25;6136453;23;20029;-73
2023/12/25 08:51:25;;;;;;;1.63;0.85;;;;;;;11.80;81.38;100689.78;6134675;23;20026;-75
2023/12/25 08:53:53;;;;;;;1.00;0.90;;;;;;;11.87;81.25;100700.44;6134833;23;20022;-74
2023/12/25 08:56:24;;;;;;;0.65;0.65;;;;;;;11.87;81.51;100697.75;6134817;23;20030;-73
2023/12/25 08:58:52;;;;;;;1.02;0.90;;;;;;;11.83;80.98;100683.94;6133582;23;20040;-73
2023/12/25 09:01:22;;;;;;;1.10;0.95;;;;;;;11.90;81.14;100716.13;6136432;23;20026;-73
2023/12/25 09:03:52;;;;;;;1.77;0.90;;;;;;;11.89;81.13;100717.19;6136095;23;20030;-69
2023/12/25 09:06:20;;;;;;;5.22;1.80;;;;;;;11.84;80.70;100699.03;6135771;23;20089;-73
2023/12/25 09:08:48;;;;;;;1.38;0.70;;;;;;;11.90;80.90;100698.09;6135882;23;20022;-70
2023/12/25 09:11:16;;;;;;;0.70;0.60;;;;;;;11.92;80.91;100705.94;6135737;23;20092;-70
2023/12/25 09:13:44;;;;;;;2.58;0.60;;;;;;;11.93;81.52;100702.19;6135721;23;20110;-69
2023/12/25 09:16:12;;;;;;;1.73;0.65;;;;;;;11.96;80.92;100707.94;6135455;23;20022;-70
2023/12/25 09:18:40;;;;;;;0.60;0.60;;;;;;;11.99;80.62;100709.34;6136338;23;20025;-71
2023/12/25 09:21:10;;;;;;;0.60;0.60;;;;;;;12.01;80.47;100718.00;6134778;23;20337;-66
2023/12/25 09:23:38;;;;;;;2.40;0.88;;;;;;;11.99;80.56;100720.94;6134489;23;20028;-70
2023/12/25 09:26:06;;;;;;;1.73;0.60;;;;;;;11.99;80.50;100734.41;6134295;23;20045;-70
2023/12/25 09:28:33;;;;;;;0.98;0.68;;;;;;;12.01;81.06;100736.84;6133353;23;20102;-72
2023/12/25 09:31:01;;;;;;;0.68;0.65;;;;;;;12.02;81.07;100738.50;6135079;23;20412;-70
2023/12/25 09:33:29;;;;;;;1.63;0.50;;;;;;;12.03;80.71;100743.66;6136228;23;20538;-73
2023/12/25 09:35:57;;;;;;;0.65;0.60;;;;;;;12.02;80.37;100758.19;6134357;23;20357;-72
2023/12/25 09:38:27;;;;;;;0.63;0.60;;;;;;;12.02;81.01;100765.44;6134690;23;20026;-72
2023/12/25 09:40:55;;;;;;;1.65;0.55;;;;;;;12.01;80.94;100759.22;6137813;23;20543;-73
2023/12/25 09:43:28;;;;;;;0.40;0.40;;;;;;;12.00;80.80;100765.66;6137654;23;20028;-72
2023/12/25 09:45:56;;;;;;;0.50;0.50;;;;;;;11.99;81.02;100763.22;6136806;23;20022;-74
2023/12/25 09:48:24;;;;;;;1.35;0.68;;;;;;;12.05;80.86;100770.34;6137517;23;20026;-73
2023/12/25 09:50:53;;;;;;;0.70;0.47;;;;;;;12.15;80.36;100767.06;6137635;23;20030;-74
2023/12/25 09:53:20;;;;;;;2.13;0.60;;;;;;;12.30;80.02;100776.31;6136616;23;20050;-73
2023/12/25 09:55:54;;;;;;;0.90;0.63;;;;;;;12.49;79.10;100750.03;6135772;23;20026;-73
2023/12/25 09:58:22;;;;;;;1.15;0.57;;;;;;;12.65;78.67;100753.88;6135677;23;20058;-73
2023/12/25 10:00:50;;;;;;;0.80;0.43;;;;;;;12.81;77.63;100733.44;6136371;23;20081;-73
2023/12/25 10:03:20;;;;;;;0.40;0.40;;;;;;;13.04;76.78;100736.06;6138758;23;20078;-73
2023/12/25 10:05:48;;;;;;;1.08;0.57;;;;;;;13.20;76.42;100739.91;6139416;23;20026;-71
2023/12/25 10:08:16;;;;;;;0.55;0.40;;;;;;;13.33;75.50;100747.69;6139594;23;20026;-73
2023/12/25 10:10:45;;;;;;;0.85;0.45;;;;;;;13.47;75.10;100743.63;6138014;23;20045;-73
2023/12/25 10:13:14;;;;;;;0.40;0.40;;;;;;;13.54;74.38;100728.09;6139418;23;20026;-72
2023/12/25 10:15:42;;;;;;;0.57;0.57;;;;;;;13.43;74.73;100737.09;6138299;23;20026;-75
2023/12/25 10:18:10;;;;;;;0.47;0.47;;;;;;;13.25;75.38;100743.50;6139201;23;20105;-75
2023/12/25 10:20:38;;;;;;;1.30;0.80;;;;;;;13.13;75.96;100744.59;6138740;23;20406;-73
2023/12/25 10:23:12;;;;;;;1.20;0.80;;;;;;;12.96;76.60;100749.94;6136402;23;20022;-67
2023/12/25 10:25:49;;;;;;;1.88;1.02;;;;;;;12.82;77.61;100752.09;6135054;23;20026;-73
2023/12/25 10:28:18;;;;;;;1.33;0.70;;;;;;;12.72;77.50;100768.06;6135968;23;20030;-69
2023/12/25 10:30:59;;;;;;;2.25;0.88;;;;;;;12.54;78.31;100743.94;6137007;23;20026;-69
2023/12/25 10:33:27;;;;;;;1.60;1.10;;;;;;;12.61;78.75;100756.22;6137758;23;20048;-69
2023/12/25 10:36:04;;;;;;;2.15;1.15;;;;;;;12.57;78.69;100755.06;6137084;23;20026;-69
2023/12/25 10:38:32;;;;;;;;;;;;;;;12.52;78.64;100746.06;6136408;23;20026;-70
2023/12/25 10:41:17;;;;;;;1.08;0.70;;;;;;;12.46;79.03;100738.91;6138910;23;19945;-70
2023/12/25 10:43:54;;;;;;;1.40;0.80;;;;;;;12.45;79.01;100729.19;6138511;23;20041;-68
2023/12/25 10:46:23;;;;;;;1.90;1.00;;;;;;;12.38;79.24;100740.91;6138301;23;20033;-69
2023/12/25 10:48:53;;;;;;;1.25;0.98;;;;;;;12.36;79.46;100734.94;6138685;23;20026;-68
2023/12/25 10:51:32;;;;;;;2.08;0.90;;;;;;;12.34;79.73;100731.66;6138902;23;20064;-68
2023/12/25 10:54:02;;;;;;;2.47;0.90;;;;;;;12.31;80.28;100745.59;6137832;23;20069;-69
2023/12/25 10:56:34;;;;;;;1.00;0.90;;;;;;;12.36;80.48;100753.00;6137582;23;20026;-69
2023/12/25 10:59:11;;;;;;;1.30;0.90;;;;;;;12.48;80.21;100758.38;6136556;23;20026;-69
2023/12/25 11:01:43;;;;;;;1.40;0.80;;;;;;;12.65;79.22;100762.78;6136902;23;20128;-69
2023/12/25 11:04:13;;;;;;;1.58;1.48;;;;;;;12.78;78.21;100742.00;6137728;23;20029;-71
2023/12/25 11:06:42;;;;;;;0.95;0.60;;;;;;;13.11;76.65;100754.81;6136626;23;20452;-68
2023/12/25 11:09:12;;;;;;;0.47;0.40;;;;;;;13.28;75.85;100763.81;6136774;23;20496;-70
2023/12/25 11:11:41;;;;;;;0.43;0.43;;;;;;;13.37;75.03;100767.75;6137279;23;20026;-71
2023/12/25 11:14:10;;;;;;;2.17;0.40;;;;;;;13.42;74.45;100780.53;6136917;23;20405;-70
2023/12/25 11:16:38;;;;;;;1.75;0.50;;;;;;;13.40;74.07;100772.66;6137168;23;20096;-69
2023/12/25 11:19:06;;;;;;;0.50;0.40;;;;;;;13.31;74.57;100776.81;6137336;23;20030;-71
2023/12/25 11:21:35;;;;;;;0.52;0.30;;;;;;;13.13;75.01;100782.38;6135739;23;20130;-69
2023/12/25 11:24:03;;;;;;;0.30;0.30;;;;;;;13.00;75.45;100756.47;6134761;23;20018;-71
2023/12/25 11:26:31;;;;;;;0.32;0.32;;;;;;;12.86;75.33;100771.31;6135080;23;20225;-68
2023/12/25 11:29:02;;;;;;;0.40;0.40;;;;;;;12.78;76.10;100758.19;6135515;23;20026;-68
2023/12/25 11:31:41;;;;;;;0.40;0.40;;;;;;;12.68;76.79;100769.59;6137258;23;20085;-67